createdAt,value
2023-07-03T00:00:29.058Z,23.72
2023-07-03T00:03:31.519Z,23.76
2023-07-03T00:06:33.997Z,23.81
2023-07-03T00:09:36.366Z,23.82
2023-07-03T00:12:38.853Z,23.74
2023-07-03T00:15:41.195Z,23.79
2023-07-03T00:18:43.635Z,23.73
2023-07-03T00:21:46.047Z,23.76
2023-07-03T00:24:48.550Z,23.78
2023-07-03T00:27:51.150Z,23.76
2023-07-03T00:30:53.586Z,23.76
2023-07-03T00:33:55.973Z,23.76
2023-07-03T00:36:58.387Z,23.75
2023-07-03T00:40:00.950Z,23.75
2023-07-03T00:43:05.282Z,23.73
2023-07-03T00:46:11.922Z,23.70
2023-07-03T00:49:14.786Z,23.61
2023-07-03T00:52:17.341Z,23.73
2023-07-03T00:55:20.722Z,23.71
2023-07-03T00:58:23.279Z,23.72
2023-07-03T01:01:28.683Z,23.71
2023-07-03T01:04:46.487Z,23.70
2023-07-03T01:07:51.829Z,23.61
2023-07-03T01:10:55.683Z,23.70
2023-07-03T01:14:00.693Z,23.69
2023-07-03T01:17:03.643Z,23.66
2023-07-03T01:20:07.435Z,23.58
2023-07-03T01:23:36.180Z,23.66
2023-07-03T01:26:43.730Z,23.63
2023-07-03T01:29:55.015Z,23.65
2023-07-03T01:32:58.704Z,23.65
2023-07-03T01:36:02.095Z,23.64
2023-07-03T01:39:08.012Z,23.59
2023-07-03T01:42:11.648Z,23.63
2023-07-03T01:45:14.665Z,23.64
2023-07-03T01:48:18.254Z,23.54
2023-07-03T01:51:33.345Z,23.63
2023-07-03T01:54:41.666Z,23.62
2023-07-03T01:57:58.034Z,23.61
2023-07-03T02:01:08.057Z,23.62
2023-07-03T02:04:20.158Z,23.60
2023-07-03T02:07:22.888Z,23.60
2023-07-03T02:10:25.395Z,23.53
2023-07-03T02:13:28.703Z,23.57
2023-07-03T02:16:34.590Z,23.52
2023-07-03T02:19:37.614Z,23.54
2023-07-03T02:22:40.815Z,23.52
2023-07-03T02:25:49.914Z,23.51
2023-07-03T02:28:52.579Z,23.45
2023-07-03T02:31:55.022Z,23.49
2023-07-03T02:34:57.510Z,23.48
2023-07-03T02:37:59.904Z,23.42
2023-07-03T02:41:04.189Z,23.45
2023-07-03T02:44:06.586Z,23.44
2023-07-03T02:47:10.484Z,23.34
2023-07-03T02:50:13.981Z,23.43
2023-07-03T02:53:16.671Z,23.42
2023-07-03T02:56:19.166Z,23.41
2023-07-03T02:59:24.173Z,23.37
2023-07-03T03:02:27.230Z,23.33
2023-07-03T03:05:29.680Z,23.29
2023-07-03T03:08:32.179Z,23.30
2023-07-03T03:11:34.650Z,23.34
2023-07-03T03:14:38.057Z,23.31
2023-07-03T03:17:40.685Z,23.33
2023-07-03T03:20:46.911Z,23.25
2023-07-03T03:23:49.458Z,23.31
2023-07-03T03:26:51.918Z,23.26
2023-07-03T03:29:54.467Z,23.28
2023-07-03T03:32:57.024Z,23.26
2023-07-03T03:35:59.586Z,23.26
2023-07-03T03:39:02.049Z,23.23
2023-07-03T03:42:06.058Z,23.25
2023-07-03T03:45:08.693Z,23.19
2023-07-03T03:48:11.347Z,23.21
2023-07-03T03:51:15.208Z,23.18
2023-07-03T03:54:17.589Z,23.24
2023-07-03T03:57:19.996Z,23.24
2023-07-03T04:00:23.052Z,23.26
2023-07-03T04:03:25.703Z,23.27
2023-07-03T04:06:28.341Z,23.21
2023-07-03T04:09:30.942Z,23.28
2023-07-03T04:12:33.623Z,23.28
2023-07-03T04:15:38.426Z,23.20
2023-07-03T04:18:41.987Z,23.27
2023-07-03T04:21:44.431Z,23.30
2023-07-03T04:24:46.909Z,23.30
2023-07-03T04:27:49.375Z,23.27
2023-07-03T04:30:51.813Z,23.37
2023-07-03T04:33:54.235Z,23.29
2023-07-03T04:36:56.704Z,23.41
2023-07-03T04:39:59.153Z,23.45
2023-07-03T04:43:01.843Z,23.46
2023-07-03T04:46:04.735Z,23.54
2023-07-03T04:49:07.193Z,23.52
2023-07-03T04:52:09.547Z,23.58
2023-07-03T04:55:13.185Z,23.70
2023-07-03T04:58:16.125Z,23.77
2023-07-03T05:01:19.086Z,23.81
2023-07-03T05:04:21.649Z,23.86
2023-07-03T05:07:24.141Z,23.92
2023-07-03T05:10:27.033Z,23.96
2023-07-03T05:13:29.403Z,23.97
2023-07-03T05:16:32.151Z,24.00
2023-07-03T05:19:34.868Z,24.02
2023-07-03T05:22:42.113Z,24.05
2023-07-03T05:25:46.641Z,24.07
2023-07-03T05:28:49.057Z,24.05
2023-07-03T05:31:51.462Z,24.07
2023-07-03T05:34:53.880Z,24.09
2023-07-03T05:37:57.362Z,24.14
2023-07-03T05:40:59.898Z,24.26
2023-07-03T05:44:02.385Z,24.30
2023-07-03T05:47:07.589Z,24.29
2023-07-03T05:50:10.510Z,24.26
2023-07-03T05:53:13.293Z,24.37
2023-07-03T05:56:15.772Z,24.42
2023-07-03T05:59:18.200Z,24.40
2023-07-03T06:02:20.673Z,24.41
2023-07-03T06:05:23.180Z,24.53
2023-07-03T06:08:25.740Z,24.57
2023-07-03T06:11:28.135Z,24.62
2023-07-03T06:14:31.236Z,24.59
2023-07-03T06:17:33.705Z,24.75
2023-07-03T06:20:36.239Z,24.82
2023-07-03T06:23:38.594Z,24.82
2023-07-03T06:26:41.627Z,24.97
2023-07-03T06:29:44.140Z,25.12
2023-07-03T06:32:46.946Z,25.27
2023-07-03T06:35:51.107Z,25.42
2023-07-03T06:38:58.183Z,25.56
2023-07-03T06:42:00.891Z,25.64
2023-07-03T06:45:03.785Z,25.79
2023-07-03T06:48:06.394Z,25.94
2023-07-03T06:51:10.000Z,26.08
2023-07-03T06:54:12.384Z,26.19
2023-07-03T06:57:14.859Z,26.29
2023-07-03T07:00:17.976Z,26.44
2023-07-03T07:03:20.628Z,26.55
2023-07-03T07:06:28.613Z,26.65
2023-07-03T07:09:31.056Z,26.74
2023-07-03T07:12:33.475Z,26.84
2023-07-03T07:15:39.770Z,26.97
2023-07-03T07:18:42.682Z,27.07
2023-07-03T07:21:45.339Z,27.06
2023-07-03T07:24:47.832Z,27.15
2023-07-03T07:27:50.242Z,27.17
2023-07-03T07:30:52.944Z,27.16
2023-07-03T07:33:56.473Z,27.23
2023-07-03T07:36:59.121Z,27.21
2023-07-03T07:40:01.559Z,27.37
2023-07-03T07:43:04.726Z,27.41
2023-07-03T07:46:07.342Z,27.40
2023-07-03T07:49:10.564Z,27.34
2023-07-03T07:52:13.086Z,27.32
2023-07-03T07:55:15.544Z,27.27
2023-07-03T07:58:17.960Z,27.30
2023-07-03T08:01:20.904Z,27.23
2023-07-03T08:04:23.489Z,27.27
2023-07-03T08:07:25.982Z,27.22
2023-07-03T08:10:28.377Z,27.11
2023-07-03T08:13:32.113Z,27.11
2023-07-03T08:16:34.592Z,27.11
2023-07-03T08:19:37.516Z,27.05
2023-07-03T08:22:40.405Z,26.99
2023-07-03T08:25:43.113Z,26.83
2023-07-03T08:28:45.526Z,26.75
2023-07-03T08:31:47.937Z,26.72
2023-07-03T08:37:56.711Z,26.62
2023-07-03T08:41:00.659Z,26.58
2023-07-03T08:44:03.065Z,26.60
2023-07-03T08:47:12.044Z,26.54
2023-07-03T08:50:27.871Z,26.57
2023-07-03T08:53:43.760Z,26.44
2023-07-03T08:56:47.184Z,26.44
2023-07-03T08:59:49.534Z,26.35
2023-07-03T09:03:07.710Z,26.40
2023-07-03T09:06:51.535Z,26.32
2023-07-03T09:10:12.722Z,26.33
2023-07-03T09:13:40.310Z,26.33
2023-07-03T09:16:43.652Z,26.21
2023-07-03T09:19:48.666Z,26.29
2023-07-03T09:22:58.024Z,26.24
2023-07-03T09:26:06.653Z,26.24
2023-07-03T09:29:11.270Z,26.28
2023-07-03T09:32:27.809Z,26.30
2023-07-03T09:35:38.341Z,26.26
2023-07-03T09:38:40.934Z,26.24
2023-07-03T09:41:43.423Z,26.33
2023-07-03T09:44:45.911Z,26.38
2023-07-03T09:47:59.965Z,26.34
2023-07-03T09:51:20.791Z,26.39
2023-07-03T09:54:27.539Z,26.33
2023-07-03T09:57:30.038Z,26.32
2023-07-03T10:00:32.470Z,26.38
2023-07-03T10:03:36.535Z,26.41
2023-07-03T10:06:40.842Z,26.42
2023-07-03T10:12:59.531Z,26.38
2023-07-03T10:16:02.758Z,26.29
2023-07-03T10:19:05.381Z,26.11
2023-07-03T10:22:08.211Z,26.12
2023-07-03T10:25:18.632Z,26.14
2023-07-03T10:28:28.248Z,26.26
2023-07-03T10:31:41.752Z,26.23
2023-07-03T10:35:01.588Z,26.22
2023-07-03T10:38:17.576Z,26.07
2023-07-03T10:41:24.563Z,26.10
2023-07-03T10:44:31.126Z,26.16
2023-07-03T10:47:39.372Z,26.10
2023-07-03T10:50:50.583Z,26.18
2023-07-03T10:54:01.968Z,26.16
2023-07-03T10:57:07.387Z,26.01
2023-07-03T11:00:14.892Z,26.07
2023-07-03T11:03:43.746Z,26.10
2023-07-03T11:06:49.704Z,26.07
2023-07-03T11:10:10.172Z,26.04
2023-07-03T11:13:53.133Z,26.01
2023-07-03T11:17:07.642Z,25.90
2023-07-03T11:20:18.611Z,26.04
2023-07-03T11:23:31.738Z,26.05
2023-07-03T11:30:04.806Z,25.98
2023-07-03T11:33:07.534Z,25.95
2023-07-03T11:36:49.529Z,26.17
2023-07-03T11:39:58.205Z,26.19
2023-07-03T11:46:22.352Z,26.09
2023-07-03T11:49:27.264Z,26.10
2023-07-03T11:52:35.940Z,26.07
2023-07-03T11:55:40.720Z,26.07
2023-07-03T11:58:44.548Z,26.13
2023-07-03T12:01:47.139Z,25.85
2023-07-03T12:04:51.029Z,26.13
2023-07-03T12:07:53.470Z,26.00
2023-07-03T12:10:56.872Z,26.10
2023-07-03T12:13:59.655Z,26.08
2023-07-03T12:17:02.266Z,26.08
2023-07-03T12:20:13.799Z,26.09
2023-07-03T12:23:35.981Z,26.06
2023-07-03T12:26:51.247Z,26.04
2023-07-03T12:29:54.031Z,26.14
2023-07-03T12:32:58.400Z,26.15
2023-07-03T12:36:00.952Z,26.11
2023-07-03T12:39:16.108Z,26.13
2023-07-03T12:42:24.471Z,26.12
2023-07-03T12:45:29.399Z,25.99
2023-07-03T12:48:31.777Z,26.14
2023-07-03T12:51:39.699Z,26.11
2023-07-03T12:54:42.140Z,26.12
2023-07-03T12:57:45.974Z,26.13
2023-07-03T13:00:59.540Z,26.09
2023-07-03T13:04:02.708Z,26.05
2023-07-03T13:07:05.739Z,26.00
2023-07-03T13:10:12.220Z,26.15
2023-07-03T13:13:23.644Z,26.07
2023-07-03T13:16:31.943Z,26.14
2023-07-03T13:19:36.281Z,26.16
2023-07-03T13:22:38.883Z,25.96
2023-07-03T13:25:53.991Z,26.07
2023-07-03T13:29:02.525Z,26.00
2023-07-03T13:32:19.557Z,26.06
2023-07-03T13:35:49.650Z,26.07
2023-07-03T13:39:27.428Z,26.06
2023-07-03T13:42:32.034Z,26.06
2023-07-03T13:45:34.499Z,26.04
2023-07-03T13:48:36.894Z,25.85
2023-07-03T13:51:40.364Z,26.03
2023-07-03T13:54:42.807Z,26.00
2023-07-03T13:57:45.301Z,25.97
2023-07-03T14:00:47.766Z,25.91
2023-07-03T14:03:50.283Z,25.98
2023-07-03T14:06:52.862Z,25.94
2023-07-03T14:09:56.580Z,25.87
2023-07-03T14:12:58.939Z,25.95
2023-07-03T14:16:01.359Z,25.94
2023-07-03T14:19:06.936Z,25.94
2023-07-03T14:22:10.138Z,25.94
2023-07-03T14:25:14.926Z,25.93
2023-07-03T14:28:17.623Z,25.85
2023-07-03T14:31:20.013Z,25.88
2023-07-03T14:34:22.408Z,25.86
2023-07-03T14:37:24.786Z,25.90
2023-07-03T14:40:27.232Z,25.83
2023-07-03T14:43:29.657Z,25.83
2023-07-03T14:46:32.167Z,25.89
2023-07-03T14:49:34.595Z,25.89
2023-07-03T14:52:37.993Z,25.88
2023-07-03T14:55:40.363Z,25.80
2023-07-03T14:58:42.807Z,25.88
2023-07-03T15:01:45.444Z,25.87
2023-07-03T15:04:48.044Z,25.72
2023-07-03T15:07:53.146Z,25.76
2023-07-03T15:10:55.945Z,25.83
2023-07-03T15:13:58.405Z,25.84
2023-07-03T15:17:00.871Z,25.73
2023-07-03T15:20:05.408Z,25.72
2023-07-03T15:23:07.861Z,25.82
2023-07-03T15:26:10.961Z,25.74
2023-07-03T15:29:13.780Z,25.73
2023-07-03T15:32:16.318Z,25.82
2023-07-03T15:35:18.762Z,25.79
2023-07-03T15:38:21.167Z,25.79
2023-07-03T15:41:23.663Z,25.78
2023-07-03T15:44:26.752Z,25.76
2023-07-03T15:47:29.116Z,25.78
2023-07-03T15:50:31.537Z,25.71
2023-07-03T15:53:35.252Z,25.77
2023-07-03T15:56:37.670Z,25.72
2023-07-03T15:59:40.458Z,25.67
2023-07-03T16:02:43.050Z,25.62
2023-07-03T16:05:45.431Z,25.70
2023-07-03T16:08:50.992Z,25.76
2023-07-03T16:11:54.134Z,25.74
2023-07-03T16:14:56.558Z,25.69
2023-07-03T16:17:58.924Z,25.63
2023-07-03T16:21:03.387Z,25.75
2023-07-03T16:24:08.147Z,25.75
2023-07-03T16:27:10.547Z,25.75
2023-07-03T16:30:12.951Z,25.70
2023-07-03T16:33:15.358Z,25.66
2023-07-03T16:36:23.426Z,25.71
2023-07-03T16:39:25.895Z,25.65
2023-07-03T16:42:28.445Z,25.67
2023-07-03T16:45:30.960Z,25.67
2023-07-03T16:48:34.246Z,25.69
2023-07-03T16:51:36.845Z,25.61
2023-07-03T16:54:39.261Z,25.68
2023-07-03T16:57:41.604Z,25.56
2023-07-03T17:00:44.088Z,25.60
2023-07-03T17:03:47.403Z,25.66
2023-07-03T17:06:49.824Z,25.55
2023-07-03T17:09:52.295Z,25.65
2023-07-03T17:12:54.729Z,25.66
2023-07-03T17:15:57.294Z,25.62
2023-07-03T17:18:59.710Z,25.64
2023-07-03T17:22:02.216Z,25.57
2023-07-03T17:25:04.939Z,25.60
2023-07-03T17:28:07.690Z,25.57
2023-07-03T17:31:10.262Z,25.62
2023-07-03T17:34:13.998Z,25.56
2023-07-03T17:37:16.422Z,25.58
2023-07-03T17:40:18.803Z,25.60
2023-07-03T17:43:24.288Z,25.58
2023-07-03T17:46:26.847Z,25.55
2023-07-03T17:49:29.384Z,25.47
2023-07-03T17:52:32.090Z,25.56
2023-07-03T17:55:34.522Z,25.43
2023-07-03T17:58:36.919Z,25.56
2023-07-03T18:01:39.386Z,25.56
2023-07-03T18:04:42.077Z,25.55
2023-07-03T18:07:44.467Z,25.51
2023-07-03T18:10:46.856Z,25.54
2023-07-03T18:13:49.395Z,25.44
2023-07-03T18:16:52.197Z,25.53
2023-07-03T18:19:54.762Z,25.52
2023-07-03T18:22:57.271Z,25.47
2023-07-03T18:25:59.658Z,25.42
2023-07-03T18:29:02.042Z,25.48
2023-07-03T18:32:04.661Z,25.44
2023-07-03T18:35:07.683Z,25.46
2023-07-03T18:38:10.087Z,25.40
2023-07-03T18:41:12.829Z,25.33
2023-07-03T18:44:15.223Z,25.46
2023-07-03T18:47:17.766Z,25.46
2023-07-03T18:50:20.306Z,25.45
2023-07-03T18:53:22.746Z,25.38
2023-07-03T18:56:25.146Z,25.38
2023-07-03T18:59:28.094Z,25.41
2023-07-03T19:02:31.552Z,25.43
2023-07-03T19:05:33.955Z,25.38
2023-07-03T19:08:37.677Z,25.41
2023-07-03T19:11:43.917Z,25.39
2023-07-03T19:14:46.359Z,25.38
2023-07-03T19:17:48.788Z,25.35
2023-07-03T19:20:51.258Z,25.34
2023-07-03T19:23:53.634Z,25.32
2023-07-03T19:26:56.075Z,25.22
2023-07-03T19:29:58.480Z,25.25
2023-07-03T19:33:00.989Z,25.33
2023-07-03T19:36:03.561Z,25.31
2023-07-03T19:39:06.237Z,25.30
2023-07-03T19:42:08.803Z,25.21
2023-07-03T19:45:11.427Z,25.28
2023-07-03T19:48:14.275Z,25.27
2023-07-03T19:51:16.766Z,25.22
2023-07-03T19:54:19.154Z,25.23
2023-07-03T19:57:21.734Z,25.24
2023-07-03T20:00:26.805Z,25.23
2023-07-03T20:03:29.815Z,25.14
2023-07-03T20:06:32.355Z,25.17
2023-07-03T20:09:34.797Z,25.20
2023-07-03T20:12:37.198Z,25.12
2023-07-03T20:15:43.802Z,25.15
2023-07-03T20:18:53.667Z,25.16
2023-07-03T20:21:56.158Z,25.15
2023-07-03T20:24:58.581Z,25.08
2023-07-03T20:28:01.806Z,25.14
2023-07-03T20:31:07.785Z,25.13
2023-07-03T20:34:10.233Z,25.12
2023-07-03T20:37:12.715Z,25.03
2023-07-03T20:40:15.423Z,25.09
2023-07-03T20:43:17.795Z,25.00
2023-07-03T20:46:22.956Z,24.99
2023-07-03T20:49:26.601Z,25.03
2023-07-03T20:52:30.864Z,25.04
2023-07-03T20:55:44.387Z,24.94
2023-07-03T20:58:48.506Z,25.01
2023-07-03T21:01:51.221Z,24.95
2023-07-03T21:04:53.687Z,24.93
2023-07-03T21:07:56.112Z,24.98
2023-07-03T21:10:59.605Z,24.96
2023-07-03T21:14:05.542Z,24.88
2023-07-03T21:17:08.160Z,24.94
2023-07-03T21:20:11.275Z,24.91
2023-07-03T21:23:13.608Z,24.91
2023-07-03T21:26:19.197Z,24.86
2023-07-03T21:29:21.504Z,24.71
2023-07-03T21:32:23.828Z,24.82
2023-07-03T21:35:26.393Z,24.84
2023-07-03T21:38:28.737Z,24.82
2023-07-03T21:41:33.327Z,24.81
2023-07-03T21:44:35.714Z,24.79
2023-07-03T21:47:38.094Z,24.69
2023-07-03T21:50:40.455Z,24.70
2023-07-03T21:53:43.637Z,24.65
2023-07-03T21:56:46.717Z,24.69
2023-07-03T21:59:50.329Z,24.73
2023-07-03T22:02:52.766Z,24.70
2023-07-03T22:05:57.941Z,24.69
2023-07-03T22:09:00.660Z,24.68
2023-07-03T22:12:06.102Z,24.63
2023-07-03T22:15:09.147Z,24.57
2023-07-03T22:18:11.602Z,24.64
2023-07-03T22:21:15.583Z,24.63
2023-07-03T22:24:18.032Z,24.61
2023-07-03T22:27:20.385Z,24.50
2023-07-03T22:30:22.900Z,24.56
2023-07-03T22:33:25.502Z,24.59
2023-07-03T22:36:27.851Z,24.59
2023-07-03T22:39:30.267Z,24.57
2023-07-03T22:42:32.611Z,24.57
2023-07-03T22:45:35.239Z,24.56
2023-07-03T22:48:41.175Z,24.44
2023-07-03T22:51:43.695Z,24.54
2023-07-03T22:54:49.321Z,24.53
2023-07-03T22:57:51.806Z,24.53
2023-07-03T23:00:54.293Z,24.53
2023-07-03T23:03:56.736Z,24.51
2023-07-03T23:06:59.117Z,24.49
2023-07-03T23:10:08.174Z,24.41
2023-07-03T23:13:10.637Z,24.50
2023-07-03T23:16:13.173Z,24.42
2023-07-03T23:19:18.038Z,24.46
2023-07-03T23:22:21.353Z,24.46
2023-07-03T23:25:24.375Z,24.47
2023-07-03T23:28:32.712Z,24.34
2023-07-03T23:31:35.627Z,24.46
2023-07-03T23:34:38.090Z,24.46
2023-07-03T23:37:42.440Z,24.46
2023-07-03T23:40:45.942Z,24.44
2023-07-03T23:43:49.930Z,24.44
2023-07-03T23:46:52.966Z,24.42
2023-07-03T23:49:55.586Z,24.43
2023-07-03T23:52:58.233Z,24.42
2023-07-03T23:56:03.379Z,24.33
2023-07-03T23:59:05.736Z,24.26
